createdAt,value
2022-11-04T00:00:49.059Z,6.95
2022-11-04T00:05:51.030Z,7.90
2022-11-04T00:11:15.997Z,5.97
2022-11-04T00:16:36.618Z,6.03
2022-11-04T00:21:57.901Z,6.60
2022-11-04T00:27:18.463Z,5.05
2022-11-04T00:32:39.323Z,4.60
2022-11-04T00:37:43.517Z,5.45
2022-11-04T00:42:46.816Z,3.50
2022-11-04T00:47:48.789Z,7.00
2022-11-04T00:52:51.200Z,5.82
2022-11-04T01:02:56.299Z,4.57
2022-11-04T01:07:58.345Z,5.20
2022-11-04T01:13:00.452Z,4.75
2022-11-04T01:18:02.460Z,2.58
2022-11-04T01:23:04.516Z,5.53
2022-11-04T01:28:06.831Z,4.75
2022-11-04T01:33:09.005Z,7.78
2022-11-04T01:38:11.476Z,6.10
2022-11-04T01:43:17.540Z,5.05
2022-11-04T01:48:25.845Z,6.38
2022-11-04T01:53:40.859Z,4.97
2022-11-04T01:58:51.655Z,5.25
2022-11-04T02:04:19.420Z,6.78
2022-11-04T02:09:23.394Z,4.10
2022-11-04T02:14:25.855Z,5.82
2022-11-04T02:24:58.753Z,6.13
2022-11-04T02:30:10.586Z,5.63
2022-11-04T02:35:15.228Z,8.20
2022-11-04T02:40:41.423Z,5.35
2022-11-04T02:45:47.648Z,5.38
2022-11-04T02:50:59.984Z,4.78
2022-11-04T02:56:05.479Z,5.88
2022-11-04T03:01:10.626Z,5.53
2022-11-04T03:06:17.652Z,6.95
2022-11-04T03:11:23.645Z,3.88
2022-11-04T03:16:50.902Z,6.40
2022-11-04T03:22:20.532Z,5.10
2022-11-04T03:27:31.250Z,6.63
2022-11-04T03:32:39.344Z,6.30
2022-11-04T03:37:42.009Z,7.63
2022-11-04T03:42:49.766Z,7.00
2022-11-04T03:47:52.808Z,5.20
2022-11-04T03:52:56.058Z,7.55
2022-11-04T03:58:27.109Z,6.53
2022-11-04T04:03:36.471Z,6.60
2022-11-04T04:08:44.734Z,6.43
2022-11-04T04:13:53.955Z,6.05
2022-11-04T04:19:03.248Z,8.23
2022-11-04T04:24:27.125Z,6.30
2022-11-04T04:29:30.072Z,7.38
2022-11-04T04:34:33.655Z,7.15
2022-11-04T04:40:12.268Z,7.50
2022-11-04T04:45:25.288Z,8.93
2022-11-04T04:50:32.102Z,8.20
2022-11-04T04:55:38.861Z,6.00
2022-11-04T05:00:43.786Z,6.65
2022-11-04T05:05:45.747Z,6.50
2022-11-04T05:10:47.720Z,6.25
2022-11-04T05:15:49.673Z,7.40
2022-11-04T05:20:51.625Z,7.47
2022-11-04T05:25:53.681Z,8.82
2022-11-04T05:30:55.681Z,8.73
2022-11-04T05:36:09.944Z,9.60
2022-11-04T05:41:25.997Z,9.40
2022-11-04T05:46:29.002Z,8.45
2022-11-04T05:51:31.604Z,8.02
2022-11-04T05:56:33.616Z,5.93
2022-11-04T06:01:41.117Z,7.47
2022-11-04T06:06:43.178Z,7.43
2022-11-04T06:11:45.660Z,7.75
2022-11-04T06:16:48.079Z,5.57
2022-11-04T06:26:52.111Z,7.95
2022-11-04T06:31:54.177Z,7.80
2022-11-04T06:36:56.238Z,6.28
2022-11-04T06:41:59.816Z,7.47
2022-11-04T06:47:04.520Z,9.20
2022-11-04T06:52:06.519Z,7.10
2022-11-04T06:57:11.968Z,8.70
2022-11-04T07:02:14.110Z,9.15
2022-11-04T07:07:16.149Z,10.23
2022-11-04T07:12:19.391Z,13.05
2022-11-04T07:17:21.335Z,7.57
2022-11-04T07:22:23.353Z,7.70
2022-11-04T07:27:25.384Z,9.10
2022-11-04T07:32:27.338Z,9.73
2022-11-04T07:37:29.281Z,10.68
2022-11-04T07:42:31.298Z,9.70
2022-11-04T07:47:33.788Z,11.95
2022-11-04T07:52:35.765Z,8.02
2022-11-04T07:57:37.921Z,10.95
2022-11-04T08:02:40.031Z,8.95
2022-11-04T08:07:42.598Z,10.80
2022-11-04T08:12:44.567Z,10.80
2022-11-04T08:17:46.581Z,11.43
2022-11-04T08:22:48.771Z,9.80
2022-11-04T08:27:50.762Z,10.35
2022-11-04T08:32:52.696Z,10.82
2022-11-04T08:37:54.685Z,8.63
2022-11-04T08:42:56.764Z,10.43
2022-11-04T08:48:04.172Z,9.32
2022-11-04T08:53:07.756Z,11.85
2022-11-04T08:58:10.451Z,8.93
2022-11-04T09:03:13.057Z,12.60
2022-11-04T09:13:19.144Z,9.88
2022-11-04T09:18:21.206Z,10.90
2022-11-04T09:23:23.388Z,8.57
2022-11-04T09:28:26.273Z,8.27
2022-11-04T09:33:28.273Z,7.60
2022-11-04T09:38:30.430Z,7.93
2022-11-04T09:44:00.130Z,8.73
2022-11-04T09:49:05.902Z,9.00
2022-11-04T09:55:03.390Z,8.13
2022-11-04T10:00:06.798Z,7.30
2022-11-04T10:05:31.698Z,10.43
2022-11-04T10:10:55.180Z,8.02
2022-11-04T10:16:18.053Z,8.50
2022-11-04T10:21:41.951Z,8.95
2022-11-04T10:27:12.548Z,8.18
2022-11-04T10:32:34.653Z,8.50
2022-11-04T10:37:36.821Z,9.13
2022-11-04T10:42:38.833Z,9.98
2022-11-04T10:48:09.038Z,9.07
2022-11-04T10:53:24.341Z,9.45
2022-11-04T10:58:30.942Z,7.40
2022-11-04T11:03:35.174Z,8.95
2022-11-04T11:08:38.423Z,9.77
2022-11-04T11:13:45.537Z,9.88
2022-11-04T11:19:09.898Z,9.57
2022-11-04T11:24:21.633Z,8.98
2022-11-04T11:29:28.770Z,7.40
2022-11-04T11:34:39.032Z,11.93
2022-11-04T11:39:44.177Z,7.57
2022-11-04T11:44:57.794Z,8.35
2022-11-04T11:50:30.909Z,6.18
2022-11-04T11:55:38.554Z,8.77
2022-11-04T12:00:54.615Z,7.38
2022-11-04T12:12:05.121Z,9.27
2022-11-04T12:17:20.443Z,7.60
2022-11-04T12:22:40.992Z,8.95
2022-11-04T12:28:04.696Z,7.85
2022-11-04T12:33:17.416Z,8.43
2022-11-04T12:39:06.191Z,7.65
2022-11-04T12:44:28.794Z,8.85
2022-11-04T12:49:49.483Z,10.40
2022-11-04T12:55:16.185Z,8.20
2022-11-04T13:00:28.614Z,8.05
2022-11-04T13:05:47.616Z,7.72
2022-11-04T13:10:56.105Z,8.57
2022-11-04T13:16:04.975Z,7.45
2022-11-04T13:21:12.694Z,9.35
2022-11-04T13:26:16.323Z,8.38
2022-11-04T13:31:31.067Z,8.90
2022-11-04T13:36:54.686Z,9.30
2022-11-04T13:42:22.583Z,8.52
2022-11-04T13:47:35.438Z,9.98
2022-11-04T13:52:52.646Z,9.38
2022-11-04T13:57:58.578Z,9.52
2022-11-04T14:03:22.524Z,9.88
2022-11-04T14:08:25.009Z,8.65
2022-11-04T14:13:37.941Z,9.50
2022-11-04T14:18:45.623Z,9.32
2022-11-04T14:23:53.258Z,9.18
2022-11-04T14:29:25.637Z,10.38
2022-11-04T14:34:31.642Z,8.75
2022-11-04T14:39:40.745Z,9.50
2022-11-04T14:44:49.816Z,8.98
2022-11-04T14:49:58.561Z,9.55
2022-11-04T14:55:14.215Z,11.20
2022-11-04T15:00:23.089Z,10.13
2022-11-04T15:05:30.067Z,11.18
2022-11-04T15:10:32.130Z,9.88
2022-11-04T15:20:52.922Z,10.30
2022-11-04T15:25:56.497Z,10.63
2022-11-04T15:31:15.685Z,11.02
2022-11-04T15:36:28.158Z,8.60
2022-11-04T15:41:50.962Z,10.82
2022-11-04T15:46:57.574Z,10.82
2022-11-04T15:52:09.690Z,55.78
2022-11-04T15:57:41.396Z,12.02
2022-11-04T16:02:54.187Z,11.43
2022-11-04T16:08:14.606Z,12.75
2022-11-04T16:13:16.471Z,12.02
2022-11-04T16:18:32.030Z,13.63
2022-11-04T16:23:45.349Z,11.98
2022-11-04T16:28:47.523Z,11.60
2022-11-04T16:39:05.211Z,11.82
2022-11-04T16:44:20.826Z,10.60
2022-11-04T16:49:24.032Z,11.93
2022-11-04T16:54:27.731Z,12.55
2022-11-04T16:59:30.286Z,10.63
2022-11-04T17:04:33.361Z,11.55
2022-11-04T17:09:35.906Z,11.45
2022-11-04T17:14:38.040Z,10.43
2022-11-04T17:24:43.079Z,11.20
2022-11-04T17:29:45.324Z,12.63
2022-11-04T17:34:47.864Z,13.95
2022-11-04T17:39:50.413Z,10.88
2022-11-04T17:44:52.944Z,11.35
2022-11-04T17:49:55.137Z,10.30
2022-11-04T17:59:59.150Z,12.98
2022-11-04T18:05:03.986Z,9.82
2022-11-04T18:10:06.734Z,12.80
2022-11-04T18:15:12.452Z,13.27
2022-11-04T18:20:16.548Z,12.40
2022-11-04T18:25:19.429Z,13.15
2022-11-04T18:30:22.890Z,9.35
2022-11-04T18:35:25.386Z,10.98
2022-11-04T18:40:27.910Z,12.57
2022-11-04T18:45:31.216Z,10.65
2022-11-04T18:50:34.992Z,11.10
2022-11-04T18:55:37.105Z,13.85
2022-11-04T19:00:40.932Z,11.82
2022-11-04T19:05:44.305Z,13.30
2022-11-04T19:11:00.583Z,16.23
2022-11-04T19:16:09.274Z,14.60
2022-11-04T19:21:15.839Z,15.07
2022-11-04T19:26:21.494Z,14.00
2022-11-04T19:31:26.961Z,13.75
2022-11-04T19:36:29.732Z,16.98
2022-11-04T19:41:51.210Z,19.00
2022-11-04T19:46:55.775Z,18.67
2022-11-04T19:51:59.710Z,17.38
2022-11-04T19:57:02.473Z,15.15
2022-11-04T20:02:05.139Z,18.25
2022-11-04T20:07:08.387Z,18.85
2022-11-04T20:12:31.879Z,17.45
2022-11-04T20:17:34.834Z,13.52
2022-11-04T20:22:37.804Z,18.92
2022-11-04T20:27:40.375Z,15.52
2022-11-04T20:32:42.839Z,17.55
2022-11-04T20:37:45.452Z,18.58
2022-11-04T20:42:51.048Z,17.90
2022-11-04T20:47:54.401Z,17.63
2022-11-04T20:52:56.645Z,14.85
2022-11-04T21:03:03.414Z,16.67
2022-11-04T21:08:06.301Z,21.17
2022-11-04T21:13:08.869Z,14.93
2022-11-04T21:18:13.242Z,21.52
2022-11-04T21:23:17.573Z,15.73
2022-11-04T21:28:19.723Z,16.23
2022-11-04T21:33:21.996Z,17.02
2022-11-04T21:43:27.051Z,16.17
2022-11-04T21:48:30.794Z,20.33
2022-11-04T21:53:33.168Z,16.15
2022-11-04T21:58:36.862Z,17.10
2022-11-04T22:03:39.125Z,14.70
2022-11-04T22:13:47.397Z,15.82
2022-11-04T22:18:53.104Z,18.65
2022-11-04T22:23:55.946Z,14.60
2022-11-04T22:28:58.930Z,20.23
2022-11-04T22:34:01.755Z,15.57
2022-11-04T22:39:03.923Z,19.42
2022-11-04T22:44:05.944Z,17.52
2022-11-04T22:49:07.945Z,17.98
2022-11-04T22:54:10.820Z,19.73
2022-11-04T22:59:12.840Z,18.40
2022-11-04T23:04:14.915Z,18.45
2022-11-04T23:09:17.079Z,20.45
2022-11-04T23:14:39.487Z,16.67
2022-11-04T23:19:41.865Z,17.48
2022-11-04T23:25:02.465Z,17.23
2022-11-04T23:30:21.678Z,19.23
2022-11-04T23:35:50.754Z,20.40
2022-11-04T23:41:18.487Z,22.70
2022-11-04T23:46:43.087Z,21.55
2022-11-04T23:52:04.301Z,17.35
2022-11-04T23:57:34.165Z,21.23
